createdAt,value
2018-05-13T00:00:39.575Z,77.00
2018-05-13T00:03:07.503Z,77.10
2018-05-13T00:05:36.122Z,76.90
2018-05-13T00:08:03.861Z,76.80
2018-05-13T00:10:31.610Z,76.80
2018-05-13T00:12:59.356Z,75.00
2018-05-13T00:15:27.076Z,74.70
2018-05-13T00:17:54.824Z,75.00
2018-05-13T00:20:22.559Z,76.20
2018-05-13T00:22:50.453Z,73.80
2018-05-13T00:25:18.277Z,73.60
2018-05-13T00:27:46.076Z,73.20
2018-05-13T00:30:14.026Z,73.50
2018-05-13T00:32:41.806Z,72.90
2018-05-13T00:35:09.671Z,74.10
2018-05-13T00:37:37.539Z,72.80
2018-05-13T00:40:05.398Z,72.40
2018-05-13T00:42:33.262Z,72.00
2018-05-13T00:45:01.129Z,73.40
2018-05-13T00:47:28.960Z,72.40
2018-05-13T00:49:56.864Z,71.20
2018-05-13T00:52:24.719Z,70.10
2018-05-13T00:54:55.555Z,71.40
2018-05-13T00:57:23.418Z,69.80
2018-05-13T00:59:51.283Z,70.70
2018-05-13T01:02:19.145Z,70.90
2018-05-13T01:04:46.993Z,72.20
2018-05-13T01:07:14.891Z,71.10
2018-05-13T01:09:42.738Z,71.20
2018-05-13T01:12:10.915Z,70.90
2018-05-13T01:14:38.772Z,71.10
2018-05-13T01:17:06.638Z,70.20
2018-05-13T01:19:34.502Z,69.70
2018-05-13T01:22:02.368Z,69.80
2018-05-13T01:24:30.230Z,69.30
2018-05-13T01:26:58.007Z,68.60
2018-05-13T01:29:25.736Z,69.40
2018-05-13T01:31:53.493Z,68.90
2018-05-13T01:34:21.210Z,69.40
2018-05-13T01:36:49.008Z,69.50
2018-05-13T01:39:16.724Z,69.70
2018-05-13T01:41:44.562Z,69.60
2018-05-13T01:44:12.433Z,70.60
2018-05-13T01:46:40.254Z,70.40
2018-05-13T01:49:08.154Z,71.40
2018-05-13T01:51:36.025Z,71.70
2018-05-13T01:54:03.882Z,72.50
2018-05-13T01:56:31.748Z,73.50
2018-05-13T01:58:59.611Z,73.70
2018-05-13T02:01:27.477Z,73.40
2018-05-13T02:03:55.343Z,74.20
2018-05-13T02:06:23.212Z,74.20
2018-05-13T02:08:51.789Z,76.20
2018-05-13T02:11:19.651Z,76.10
2018-05-13T02:13:47.411Z,76.10
2018-05-13T02:16:15.293Z,76.50
2018-05-13T02:18:43.106Z,77.40
2018-05-13T02:21:11.007Z,78.80
2018-05-13T02:23:38.867Z,80.10
2018-05-13T02:26:06.732Z,80.50
2018-05-13T02:28:34.597Z,82.30
2018-05-13T02:31:02.468Z,82.40
2018-05-13T02:33:30.221Z,82.40
2018-05-13T02:35:58.090Z,82.80
2018-05-13T02:38:25.951Z,82.70
2018-05-13T02:40:53.817Z,83.60
2018-05-13T02:43:21.577Z,85.20
2018-05-13T02:45:49.294Z,85.10
2018-05-13T02:48:17.095Z,85.90
2018-05-13T02:50:44.835Z,86.20
2018-05-13T02:53:12.596Z,87.50
2018-05-13T02:55:40.320Z,89.00
2018-05-13T02:58:08.092Z,90.20
2018-05-13T03:00:36.728Z,90.10
2018-05-13T03:03:04.595Z,90.10
2018-05-13T03:05:32.457Z,90.20
2018-05-13T03:08:00.328Z,91.30
2018-05-13T03:10:28.144Z,91.70
2018-05-13T03:12:55.946Z,91.20
2018-05-13T03:15:23.812Z,91.60
2018-05-13T03:17:51.674Z,91.60
2018-05-13T03:20:19.438Z,91.60
2018-05-13T03:22:47.304Z,91.60
2018-05-13T03:25:15.170Z,90.80
2018-05-13T03:27:43.751Z,90.90
2018-05-13T03:30:11.612Z,90.60
2018-05-13T03:32:39.479Z,90.60
2018-05-13T03:35:07.339Z,90.00
2018-05-13T03:37:35.203Z,90.20
2018-05-13T03:40:03.887Z,81.70
2018-05-13T03:42:31.750Z,81.70
2018-05-13T03:44:59.614Z,75.70
2018-05-13T03:47:27.377Z,72.60
2018-05-13T03:49:55.244Z,73.10
2018-05-13T03:52:23.107Z,73.40
2018-05-13T03:54:50.971Z,75.00
2018-05-13T03:57:18.926Z,75.10
2018-05-13T03:59:46.697Z,73.50
2018-05-13T04:02:14.443Z,71.10
2018-05-13T04:04:42.159Z,70.60
2018-05-13T04:07:09.981Z,69.40
2018-05-13T04:09:49.435Z,68.30
2018-05-13T04:12:29.049Z,69.00
2018-05-13T04:15:08.430Z,66.70
2018-05-13T04:17:36.236Z,65.20
2018-05-13T04:20:04.121Z,64.50
2018-05-13T04:22:32.814Z,63.40
2018-05-13T04:25:00.665Z,63.10
2018-05-13T04:27:28.534Z,62.00
2018-05-13T04:29:56.353Z,61.30
2018-05-13T04:32:24.157Z,60.40
2018-05-13T04:34:52.020Z,60.20
2018-05-13T04:37:19.885Z,58.70
2018-05-13T04:39:47.672Z,58.70
2018-05-13T04:42:15.409Z,57.40
2018-05-13T04:44:43.276Z,57.20
2018-05-13T04:47:11.139Z,57.10
2018-05-13T04:49:39.487Z,55.00
2018-05-13T04:52:07.412Z,53.70
2018-05-13T04:54:35.918Z,54.00
2018-05-13T04:57:03.892Z,53.30
2018-05-13T04:59:31.687Z,53.10
2018-05-13T05:01:59.551Z,53.00
2018-05-13T05:04:27.276Z,51.50
2018-05-13T05:06:55.182Z,51.00
2018-05-13T05:09:23.040Z,48.60
2018-05-13T05:11:50.864Z,45.80
2018-05-13T05:14:18.668Z,45.70
2018-05-13T05:16:46.529Z,43.70
2018-05-13T05:19:14.399Z,41.10
2018-05-13T05:21:42.258Z,38.00
2018-05-13T05:24:10.000Z,36.20
2018-05-13T05:26:37.726Z,34.10
2018-05-13T05:29:05.501Z,31.90
2018-05-13T05:31:33.224Z,30.20
2018-05-13T05:34:00.981Z,28.50
2018-05-13T05:36:28.792Z,26.80
2018-05-13T05:38:56.656Z,26.00
2018-05-13T05:41:24.376Z,24.90
2018-05-13T05:43:52.092Z,23.30
2018-05-13T05:46:19.984Z,22.80
2018-05-13T05:48:47.708Z,21.70
2018-05-13T05:51:15.603Z,21.00
2018-05-13T05:53:43.367Z,21.20
2018-05-13T05:56:11.231Z,21.30
2018-05-13T05:58:39.095Z,21.30
2018-05-13T06:01:06.852Z,20.50
2018-05-13T06:03:34.593Z,20.60
2018-05-13T06:06:02.347Z,19.90
2018-05-13T06:08:30.074Z,18.20
2018-05-13T06:10:58.784Z,17.90
2018-05-13T06:13:26.500Z,17.90
2018-05-13T06:15:54.226Z,16.60
2018-05-13T06:18:22.114Z,16.40
2018-05-13T06:20:49.838Z,15.70
2018-05-13T06:23:17.597Z,15.60
2018-05-13T06:25:45.395Z,16.60
2018-05-13T06:28:13.152Z,16.20
2018-05-13T06:30:40.884Z,15.30
2018-05-13T06:33:08.629Z,14.40
2018-05-13T06:35:36.357Z,13.50
2018-05-13T06:38:04.121Z,14.00
2018-05-13T06:40:31.851Z,14.00
2018-05-13T06:42:59.731Z,13.70
2018-05-13T06:45:27.590Z,13.40
2018-05-13T06:47:55.323Z,13.10
2018-05-13T06:50:23.081Z,12.20
2018-05-13T06:52:50.801Z,11.50
2018-05-13T06:55:19.357Z,10.90
2018-05-13T06:57:47.107Z,10.60
2018-05-13T07:00:14.980Z,10.60
2018-05-13T07:02:42.800Z,9.50
2018-05-13T07:05:10.575Z,9.40
2018-05-13T07:07:38.327Z,9.60
2018-05-13T07:10:06.231Z,9.70
2018-05-13T07:12:34.095Z,9.20
2018-05-13T07:15:01.970Z,8.50
2018-05-13T07:17:29.786Z,9.30
2018-05-13T07:19:57.585Z,9.70
2018-05-13T07:22:25.392Z,11.00
2018-05-13T07:24:53.215Z,11.20
2018-05-13T07:27:21.075Z,11.40
2018-05-13T07:29:48.984Z,10.90
2018-05-13T07:32:16.776Z,10.30
2018-05-13T07:34:44.562Z,9.60
2018-05-13T07:37:12.431Z,9.40
2018-05-13T07:39:40.294Z,7.90
2018-05-13T07:42:08.055Z,9.20
2018-05-13T07:44:35.916Z,9.10
2018-05-13T07:47:03.783Z,8.60
2018-05-13T07:49:32.154Z,10.10
2018-05-13T07:51:59.883Z,10.90
2018-05-13T07:54:27.646Z,9.70
2018-05-13T07:56:55.384Z,9.00
2018-05-13T07:59:23.134Z,8.10
2018-05-13T08:01:51.633Z,8.00
2018-05-13T08:04:19.400Z,8.00
2018-05-13T08:06:47.523Z,8.40
2018-05-13T08:09:16.194Z,9.00
2018-05-13T08:11:43.920Z,8.40
2018-05-13T08:14:12.175Z,7.10
2018-05-13T08:16:39.875Z,6.50
2018-05-13T08:19:08.416Z,7.50
2018-05-13T08:21:36.177Z,7.50
2018-05-13T08:24:03.903Z,7.70
2018-05-13T08:26:31.956Z,8.50
2018-05-13T08:28:59.821Z,8.70
2018-05-13T08:31:27.683Z,8.10
2018-05-13T08:33:56.105Z,9.90
2018-05-13T08:36:24.695Z,8.60
2018-05-13T08:38:52.503Z,8.70
2018-05-13T08:41:20.264Z,9.20
2018-05-13T08:43:47.976Z,8.70
2018-05-13T08:46:15.796Z,9.10
2018-05-13T08:48:43.531Z,9.50
2018-05-13T08:51:11.251Z,8.60
2018-05-13T08:53:39.005Z,8.60
2018-05-13T08:56:07.516Z,11.00
2018-05-13T08:58:35.293Z,11.00
2018-05-13T09:01:03.030Z,10.90
2018-05-13T09:03:30.782Z,10.70
2018-05-13T09:05:59.282Z,9.30
2018-05-13T09:08:27.092Z,9.20
2018-05-13T09:10:54.860Z,9.60
2018-05-13T09:13:22.630Z,9.90
2018-05-13T09:15:51.178Z,11.30
2018-05-13T09:18:18.905Z,10.70
2018-05-13T09:20:46.717Z,10.70
2018-05-13T09:23:14.501Z,10.60
2018-05-13T09:25:42.264Z,10.60
2018-05-13T09:28:10.016Z,12.30
2018-05-13T09:30:37.769Z,13.30
2018-05-13T09:33:05.701Z,15.50
2018-05-13T09:35:33.478Z,16.80
2018-05-13T09:38:01.240Z,17.50
2018-05-13T09:40:29.104Z,17.90
2018-05-13T09:42:57.092Z,18.50
2018-05-13T09:45:24.934Z,18.50
2018-05-13T09:47:53.617Z,18.70
2018-05-13T09:50:21.343Z,18.70
2018-05-13T09:52:49.101Z,19.30
2018-05-13T09:55:16.908Z,18.80
2018-05-13T09:57:44.869Z,19.30
2018-05-13T10:00:12.637Z,18.70
2018-05-13T10:02:40.497Z,20.10
2018-05-13T10:05:08.366Z,19.00
2018-05-13T10:07:36.225Z,19.50
2018-05-13T10:10:04.090Z,19.10
2018-05-13T10:12:31.872Z,18.40
2018-05-13T10:14:59.717Z,18.90
2018-05-13T10:17:27.581Z,18.30
2018-05-13T10:19:55.336Z,18.10
2018-05-13T10:22:23.090Z,18.10
2018-05-13T10:24:50.963Z,18.40
2018-05-13T10:27:18.717Z,18.40
2018-05-13T10:29:46.594Z,18.60
2018-05-13T10:32:14.455Z,18.60
2018-05-13T10:34:42.208Z,18.60
2018-05-13T10:37:09.941Z,18.30
2018-05-13T10:39:37.723Z,19.50
2018-05-13T10:42:05.447Z,18.80
2018-05-13T10:44:33.168Z,18.60
2018-05-13T10:47:00.923Z,18.80
2018-05-13T10:49:28.788Z,18.40
2018-05-13T10:51:56.553Z,18.60
2018-05-13T10:54:24.280Z,18.10
2018-05-13T10:56:52.079Z,17.90
2018-05-13T10:59:19.935Z,18.30
2018-05-13T11:01:47.801Z,18.70
2018-05-13T11:04:15.568Z,18.50
2018-05-13T11:06:43.321Z,18.40
2018-05-13T11:09:11.055Z,18.80
2018-05-13T11:11:38.827Z,18.70
2018-05-13T11:14:06.551Z,18.40
2018-05-13T11:16:35.032Z,17.70
2018-05-13T11:19:03.555Z,18.00
2018-05-13T11:21:31.283Z,17.90
2018-05-13T11:23:59.043Z,17.90
2018-05-13T11:26:26.872Z,19.20
2018-05-13T11:28:54.624Z,17.80
2018-05-13T11:31:22.478Z,17.50
2018-05-13T11:33:50.275Z,17.60
2018-05-13T11:36:18.016Z,18.40
2018-05-13T11:38:45.768Z,18.10
2018-05-13T11:41:13.495Z,18.20
2018-05-13T11:43:41.242Z,17.50
2018-05-13T11:46:08.996Z,18.10
2018-05-13T11:48:36.733Z,17.40
2018-05-13T11:51:04.495Z,17.20
2018-05-13T11:53:33.007Z,17.10
2018-05-13T11:56:00.763Z,17.00
2018-05-13T11:58:28.577Z,17.70
2018-05-13T12:00:56.344Z,17.20
2018-05-13T12:03:24.064Z,17.00
2018-05-13T12:05:51.830Z,17.90
2018-05-13T12:08:19.560Z,17.90
2018-05-13T12:10:48.106Z,18.20
2018-05-13T12:13:15.824Z,18.20
2018-05-13T12:15:43.625Z,17.90
2018-05-13T12:18:11.490Z,18.50
2018-05-13T12:20:39.977Z,18.40
2018-05-13T12:23:07.761Z,18.50
2018-05-13T12:25:36.309Z,18.60
2018-05-13T12:28:04.173Z,18.60
2018-05-13T12:30:31.895Z,18.50
2018-05-13T12:32:59.805Z,18.50
2018-05-13T12:35:27.525Z,18.90
2018-05-13T12:37:55.325Z,18.50
2018-05-13T12:40:23.059Z,19.20
2018-05-13T12:42:50.803Z,18.00
2018-05-13T12:45:18.556Z,18.10
2018-05-13T12:47:46.294Z,17.70
2018-05-13T12:50:14.901Z,18.70
2018-05-13T12:52:42.599Z,18.70
2018-05-13T12:55:10.356Z,18.30
2018-05-13T12:57:38.080Z,18.30
2018-05-13T13:00:05.843Z,17.40
2018-05-13T13:02:33.565Z,17.50
2018-05-13T13:05:01.319Z,17.40
2018-05-13T13:07:29.054Z,17.60
2018-05-13T13:09:56.855Z,18.60
2018-05-13T13:12:24.574Z,19.30
2018-05-13T13:14:52.312Z,17.90
2018-05-13T13:17:20.061Z,18.50
2018-05-13T13:19:48.553Z,19.20
2018-05-13T13:22:16.342Z,19.20
2018-05-13T13:24:44.064Z,18.60
2018-05-13T13:27:12.584Z,19.10
2018-05-13T13:29:40.313Z,19.00
2018-05-13T13:32:08.128Z,19.20
2018-05-13T13:34:35.852Z,19.30
2018-05-13T13:37:03.628Z,18.80
2018-05-13T13:39:31.356Z,18.50
2018-05-13T13:41:59.077Z,17.80
2018-05-13T13:44:27.609Z,19.40
2018-05-13T13:46:55.341Z,19.40
2018-05-13T13:49:23.869Z,18.40
2018-05-13T13:51:51.595Z,18.50
2018-05-13T13:54:20.152Z,18.30
2018-05-13T13:56:48.667Z,19.40
2018-05-13T13:59:16.424Z,19.40
2018-05-13T14:01:45.161Z,19.20
2018-05-13T14:04:12.912Z,19.10
2018-05-13T14:06:40.645Z,19.30
2018-05-13T14:09:08.430Z,19.40
2018-05-13T14:11:36.183Z,19.70
2018-05-13T14:14:03.926Z,19.50
2018-05-13T14:16:31.741Z,19.40
2018-05-13T14:18:59.457Z,19.80
2018-05-13T14:21:27.255Z,19.40
2018-05-13T14:23:55.040Z,19.60
2018-05-13T14:26:23.566Z,19.80
2018-05-13T14:28:51.293Z,19.10
2018-05-13T14:31:19.823Z,19.80
2018-05-13T14:33:47.540Z,19.80
2018-05-13T14:36:16.061Z,20.00
2018-05-13T14:38:43.781Z,20.00
2018-05-13T14:41:12.447Z,20.10
2018-05-13T14:43:40.946Z,20.10
2018-05-13T14:46:10.401Z,20.40
2018-05-13T14:48:38.163Z,20.40
2018-05-13T14:51:05.903Z,19.70
2018-05-13T14:53:33.657Z,19.90
2018-05-13T14:56:01.392Z,20.10
2018-05-13T14:58:29.962Z,20.60
2018-05-13T15:00:58.447Z,20.90
2018-05-13T15:03:27.090Z,21.20
2018-05-13T15:05:54.855Z,21.10
2018-05-13T15:08:22.611Z,20.20
2018-05-13T15:10:50.386Z,20.10
2018-05-13T15:13:18.241Z,20.30
2018-05-13T15:15:46.103Z,21.30
2018-05-13T15:18:13.830Z,20.60
2018-05-13T15:20:41.592Z,21.00
2018-05-13T15:23:09.304Z,20.60
2018-05-13T15:25:37.060Z,20.00
2018-05-13T15:28:04.825Z,20.30
2018-05-13T15:30:32.612Z,20.10
2018-05-13T15:33:01.157Z,20.80
2018-05-13T15:35:29.020Z,20.70
2018-05-13T15:37:56.744Z,20.30
2018-05-13T15:40:24.535Z,20.00
2018-05-13T15:42:52.312Z,20.00
2018-05-13T15:45:20.035Z,20.30
2018-05-13T15:47:47.820Z,20.60
2018-05-13T15:50:16.553Z,20.60
2018-05-13T15:52:45.082Z,20.60
2018-05-13T15:55:12.857Z,20.60
2018-05-13T15:57:41.407Z,20.30
2018-05-13T16:00:09.155Z,20.30
2018-05-13T16:02:36.941Z,20.50
2018-05-13T16:05:04.687Z,20.90
2018-05-13T16:07:32.451Z,20.50
2018-05-13T16:10:00.189Z,21.00
2018-05-13T16:12:30.334Z,21.10
2018-05-13T16:15:00.796Z,21.50
2018-05-13T16:17:29.669Z,21.70
2018-05-13T16:19:57.464Z,21.50
2018-05-13T16:22:27.035Z,21.10
2018-05-13T16:24:54.904Z,21.00
2018-05-13T16:27:22.739Z,20.80
2018-05-13T16:29:50.612Z,21.00
2018-05-13T16:32:18.689Z,21.40
2018-05-13T16:34:47.083Z,21.50
2018-05-13T16:37:15.450Z,21.40
2018-05-13T16:39:43.317Z,21.70
2018-05-13T16:42:11.063Z,21.90
2018-05-13T16:44:38.844Z,21.60
2018-05-13T16:47:06.556Z,22.10
2018-05-13T16:49:34.275Z,21.50
2018-05-13T16:52:02.124Z,21.90
2018-05-13T16:54:29.851Z,21.40
2018-05-13T16:56:57.619Z,21.30
2018-05-13T16:59:25.466Z,21.30
2018-05-13T17:01:53.233Z,21.80
2018-05-13T17:04:21.040Z,21.40
2018-05-13T17:06:48.897Z,21.80
2018-05-13T17:09:16.700Z,21.50
2018-05-13T17:11:44.457Z,21.80
2018-05-13T17:14:12.223Z,21.80
2018-05-13T17:16:40.801Z,22.00
2018-05-13T17:19:08.632Z,22.00
2018-05-13T17:21:36.364Z,22.00
2018-05-13T17:24:04.258Z,22.20
2018-05-13T17:26:32.122Z,22.60
2018-05-13T17:29:00.109Z,23.00
2018-05-13T17:31:28.774Z,24.00
2018-05-13T17:33:56.662Z,24.00
2018-05-13T17:36:25.323Z,24.80
2018-05-13T17:38:53.229Z,24.70
2018-05-13T17:41:21.663Z,25.10
2018-05-13T17:43:49.597Z,25.30
2018-05-13T17:46:17.399Z,25.40
2018-05-13T17:48:45.559Z,25.80
2018-05-13T17:51:13.424Z,26.10
2018-05-13T17:53:41.432Z,26.30
2018-05-13T17:56:10.076Z,26.40
2018-05-13T17:58:38.042Z,26.30
2018-05-13T18:01:05.806Z,26.60
2018-05-13T18:03:33.665Z,26.80
2018-05-13T18:06:01.531Z,27.10
2018-05-13T18:08:29.395Z,27.30
2018-05-13T18:10:57.322Z,27.50
2018-05-13T18:13:25.090Z,27.60
2018-05-13T18:15:53.105Z,27.80
2018-05-13T18:18:21.977Z,27.80
2018-05-13T18:20:50.263Z,28.10
2018-05-13T18:23:18.115Z,28.30
2018-05-13T18:25:46.025Z,28.40
2018-05-13T18:28:14.558Z,28.60
2018-05-13T18:30:43.146Z,28.60
2018-05-13T18:33:10.977Z,28.70
2018-05-13T18:35:38.752Z,28.70
2018-05-13T18:38:06.568Z,28.80
2018-05-13T18:40:34.353Z,28.90
2018-05-13T18:43:02.120Z,28.70
2018-05-13T18:45:29.876Z,28.60
2018-05-13T18:47:57.723Z,28.80
2018-05-13T18:50:31.077Z,28.80
2018-05-13T18:53:05.053Z,29.10
2018-05-13T18:55:41.489Z,29.20
2018-05-13T18:58:09.234Z,29.40
2018-05-13T19:00:36.996Z,29.10
2018-05-13T19:03:05.651Z,29.70
2018-05-13T19:05:33.421Z,29.40
2018-05-13T19:08:02.095Z,29.40
2018-05-13T19:10:32.932Z,29.60
2018-05-13T19:13:00.659Z,29.70
2018-05-13T19:15:28.417Z,29.80
2018-05-13T19:17:56.143Z,29.60
2018-05-13T19:20:23.920Z,29.60
2018-05-13T19:22:51.633Z,29.50
2018-05-13T19:25:19.376Z,29.70
2018-05-13T19:27:47.269Z,29.50
2018-05-13T19:30:15.235Z,29.50
2018-05-13T19:32:43.091Z,29.40
2018-05-13T19:35:10.920Z,29.70
2018-05-13T19:37:38.665Z,29.90
2018-05-13T19:40:06.405Z,30.00
2018-05-13T19:42:34.162Z,30.00
2018-05-13T19:45:01.911Z,30.10
2018-05-13T19:47:29.740Z,30.50
2018-05-13T19:49:57.488Z,30.00
2018-05-13T19:52:25.306Z,29.60
2018-05-13T19:54:53.782Z,29.90
2018-05-13T19:57:21.512Z,29.70
2018-05-13T19:59:49.282Z,30.00
2018-05-13T20:02:17.012Z,29.90
2018-05-13T20:04:44.768Z,30.40
2018-05-13T20:07:12.490Z,30.10
2018-05-13T20:09:40.242Z,30.00
2018-05-13T20:12:07.972Z,29.90
2018-05-13T20:14:35.785Z,29.20
2018-05-13T20:17:04.302Z,29.10
2018-05-13T20:19:32.155Z,29.10
2018-05-13T20:21:59.947Z,28.90
2018-05-13T20:24:27.732Z,28.90
2018-05-13T20:26:55.525Z,29.00
2018-05-13T20:29:24.074Z,29.00
2018-05-13T20:31:51.937Z,29.00
2018-05-13T20:34:19.699Z,29.10
2018-05-13T20:36:47.561Z,29.10
2018-05-13T20:39:15.485Z,29.20
2018-05-13T20:41:43.247Z,29.30
2018-05-13T20:44:11.048Z,29.30
2018-05-13T20:46:38.839Z,29.60
2018-05-13T20:49:06.585Z,29.70
2018-05-13T20:51:34.401Z,29.60
2018-05-13T20:54:02.198Z,29.60
2018-05-13T20:56:30.054Z,29.80
2018-05-13T20:58:57.929Z,29.90
2018-05-13T21:01:26.469Z,30.00
2018-05-13T21:03:54.250Z,30.00
2018-05-13T21:06:21.976Z,30.00
2018-05-13T21:08:49.761Z,30.50
2018-05-13T21:11:17.504Z,30.70
2018-05-13T21:13:45.261Z,30.90
2018-05-13T21:16:13.898Z,31.20
2018-05-13T21:18:41.658Z,31.10
2018-05-13T21:21:09.404Z,31.40
2018-05-13T21:23:37.176Z,31.40
2018-05-13T21:26:05.048Z,31.50
2018-05-13T21:28:32.913Z,31.40
2018-05-13T21:31:03.287Z,31.70
2018-05-13T21:33:33.188Z,31.80
2018-05-13T21:36:01.833Z,31.90
2018-05-13T21:38:29.658Z,31.90
2018-05-13T21:40:57.559Z,32.30
2018-05-13T21:43:25.424Z,32.10
2018-05-13T21:45:53.292Z,32.50
2018-05-13T21:48:21.051Z,32.40
2018-05-13T21:50:48.915Z,32.00
2018-05-13T21:53:16.780Z,32.30
2018-05-13T21:55:44.648Z,32.10
2018-05-13T21:58:12.633Z,32.50
2018-05-13T22:00:41.506Z,33.10
2018-05-13T22:03:09.433Z,33.10
2018-05-13T22:05:39.478Z,33.10
2018-05-13T22:08:07.340Z,33.10
2018-05-13T22:10:35.215Z,33.50
2018-05-13T22:13:04.401Z,33.60
2018-05-13T22:15:34.211Z,33.90
2018-05-13T22:18:03.791Z,33.80
2018-05-13T22:20:31.576Z,34.60
2018-05-13T22:22:59.483Z,35.10
2018-05-13T22:25:27.364Z,35.80
2018-05-13T22:27:55.172Z,36.00
2018-05-13T22:30:22.915Z,36.20
2018-05-13T22:32:50.716Z,36.80
2018-05-13T22:35:18.499Z,37.30
2018-05-13T22:37:46.319Z,37.50
2018-05-13T22:40:14.221Z,37.70
2018-05-13T22:42:42.866Z,38.60
2018-05-13T22:45:11.549Z,38.50
2018-05-13T22:47:39.427Z,38.80
2018-05-13T22:50:07.308Z,39.20
2018-05-13T22:52:35.962Z,39.70
2018-05-13T22:55:03.824Z,39.70
2018-05-13T22:57:31.706Z,40.30
2018-05-13T22:59:59.555Z,40.20
2018-05-13T23:02:27.419Z,40.50
2018-05-13T23:04:55.285Z,40.70
2018-05-13T23:07:23.147Z,41.00
2018-05-13T23:09:50.910Z,41.50
2018-05-13T23:12:18.774Z,41.90
2018-05-13T23:14:46.605Z,42.50
2018-05-13T23:17:14.502Z,42.90
2018-05-13T23:19:42.269Z,43.50
2018-05-13T23:22:10.053Z,44.10
2018-05-13T23:24:38.537Z,44.80
2018-05-13T23:27:07.143Z,45.20
2018-05-13T23:29:34.949Z,45.20
2018-05-13T23:32:02.812Z,45.40
2018-05-13T23:34:30.736Z,46.10
2018-05-13T23:36:58.543Z,45.70
2018-05-13T23:39:26.363Z,46.40
2018-05-13T23:41:54.106Z,46.80
2018-05-13T23:44:21.860Z,47.10
2018-05-13T23:46:49.582Z,47.10
2018-05-13T23:49:17.344Z,47.20
2018-05-13T23:51:45.087Z,47.40
2018-05-13T23:54:12.856Z,47.50
2018-05-13T23:56:40.636Z,47.60
2018-05-13T23:59:08.498Z,48.20
